createdAt,value
2019-03-29T00:02:03.700Z,101000.14
2019-03-29T00:04:33.788Z,100994.84
2019-03-29T00:07:04.066Z,101000.70
2019-03-29T00:09:34.415Z,100996.09
2019-03-29T00:12:05.026Z,101002.03
2019-03-29T00:14:35.321Z,100996.27
2019-03-29T00:17:05.408Z,101001.66
2019-03-29T00:19:35.477Z,100994.64
2019-03-29T02:49:27.282Z,100977.11
2019-03-29T02:51:57.356Z,100971.16
2019-03-29T02:54:27.436Z,100970.62
2019-03-29T02:56:57.518Z,100969.34
2019-03-29T02:59:27.571Z,100975.63
2019-03-29T03:01:57.648Z,100971.08
2019-03-29T03:04:27.837Z,100969.02
2019-03-29T03:06:57.942Z,100965.25
2019-03-29T03:09:27.990Z,100974.34
2019-03-29T03:11:58.106Z,100977.53
2019-03-29T03:14:28.195Z,100977.92
2019-03-29T03:16:58.268Z,100975.13
2019-03-29T03:19:28.340Z,100974.77
2019-03-29T03:21:58.412Z,100975.32
2019-03-29T03:24:28.519Z,100979.91
2019-03-29T03:26:58.603Z,100983.17
2019-03-29T03:29:28.691Z,100980.61
2019-03-29T03:31:58.753Z,100989.94
2019-03-29T03:34:28.867Z,100988.16
2019-03-29T03:36:58.915Z,100988.39
2019-03-29T03:39:32.329Z,100991.61
2019-03-29T03:42:00.868Z,100996.52
2019-03-29T03:44:31.005Z,101002.50
2019-03-29T03:47:01.091Z,100998.72
2019-03-29T03:49:31.173Z,100997.77
2019-03-29T03:52:01.374Z,101005.88
2019-03-29T03:54:31.427Z,101004.56
2019-03-29T03:57:01.528Z,101014.27
2019-03-29T03:59:31.613Z,101017.54
2019-03-29T04:02:01.686Z,101024.15
2019-03-29T04:04:31.882Z,101025.55
2019-03-29T04:07:01.941Z,101035.58
2019-03-29T04:09:48.598Z,101029.63
2019-03-29T04:12:03.891Z,101039.95
2019-03-29T04:14:34.035Z,101040.73
2019-03-29T04:17:04.116Z,101046.56
2019-03-29T04:19:34.192Z,101045.30
2019-03-29T04:22:04.288Z,101046.22
2019-03-29T04:24:34.390Z,101045.84
2019-03-29T04:27:04.484Z,101047.05
2019-03-29T04:29:34.541Z,101052.42
2019-03-29T04:32:04.625Z,101059.31
2019-03-29T04:34:34.683Z,101058.15
2019-03-29T04:37:04.887Z,101064.42
2019-03-29T04:39:35.168Z,101068.05
2019-03-29T04:42:05.262Z,101066.95
2019-03-29T04:44:35.348Z,101077.14
2019-03-29T04:47:05.458Z,101075.82
2019-03-29T04:49:35.746Z,101076.75
2019-03-29T04:52:05.961Z,101086.02
2019-03-29T04:54:36.040Z,101081.58
2019-03-29T04:57:06.107Z,101076.17
2019-03-29T04:59:36.189Z,101073.10
2019-03-29T05:02:06.289Z,101076.98
2019-03-29T05:04:36.387Z,101079.27
2019-03-29T05:07:06.464Z,101085.69
2019-03-29T05:09:36.571Z,101083.89
2019-03-29T05:12:06.668Z,101089.95
2019-03-29T05:14:36.762Z,101093.78
2019-03-29T05:17:06.844Z,101086.34
2019-03-29T05:19:36.943Z,101095.83
2019-03-29T05:22:07.026Z,101093.75
2019-03-29T05:24:37.104Z,101095.84
2019-03-29T05:27:07.205Z,101095.83
2019-03-29T05:29:37.277Z,101094.88
2019-03-29T05:32:07.344Z,101093.38
2019-03-29T05:34:37.435Z,101091.46
2019-03-29T05:37:07.590Z,101095.47
2019-03-29T05:39:37.644Z,101094.61
2019-03-29T05:42:07.727Z,101101.13
2019-03-29T05:44:40.712Z,101096.77
2019-03-29T05:47:09.618Z,101097.53
2019-03-29T05:49:39.699Z,101098.86
2019-03-29T05:52:09.799Z,101091.63
2019-03-29T05:54:39.886Z,101092.13
2019-03-29T05:57:09.997Z,101083.92
2019-03-29T05:59:40.170Z,101092.30
2019-03-29T06:02:10.269Z,101090.84
2019-03-29T06:04:40.347Z,101094.67
2019-03-29T06:07:10.490Z,101093.55
2019-03-29T06:09:40.564Z,101090.36
2019-03-29T06:12:10.704Z,101098.94
2019-03-29T06:14:40.811Z,101097.64
2019-03-29T06:17:10.937Z,101093.82
2019-03-29T06:19:41.001Z,101089.89
2019-03-29T06:22:11.081Z,101087.23
2019-03-29T06:24:41.187Z,101090.47
2019-03-29T06:27:11.287Z,101087.77
2019-03-29T06:29:41.370Z,101083.77
2019-03-29T06:32:11.451Z,101080.91
2019-03-29T06:34:41.560Z,101086.69
2019-03-29T06:37:11.653Z,101085.58
2019-03-29T06:39:41.833Z,101079.05
2019-03-29T06:42:11.925Z,101079.34
2019-03-29T06:44:44.354Z,101073.64
2019-03-29T06:47:13.821Z,101075.56
2019-03-29T06:49:43.971Z,101075.02
2019-03-29T06:52:14.056Z,101083.16
2019-03-29T06:54:44.136Z,101080.58
2019-03-29T06:57:14.222Z,101081.69
2019-03-29T06:59:44.335Z,101091.93
2019-03-29T07:02:14.436Z,101088.34
2019-03-29T07:04:44.502Z,101084.31
2019-03-29T07:07:14.587Z,101085.66
2019-03-29T07:09:44.702Z,101086.22
2019-03-29T07:12:14.837Z,101092.86
2019-03-29T07:14:44.906Z,101092.20
2019-03-29T07:17:14.985Z,101099.28
2019-03-29T07:19:45.067Z,101099.88
2019-03-29T07:22:15.159Z,101105.31
2019-03-29T07:24:45.250Z,101103.77
2019-03-29T07:27:15.330Z,101099.14
2019-03-29T07:29:45.421Z,101090.36
2019-03-29T07:32:15.748Z,101095.78
2019-03-29T07:34:49.040Z,101098.34
2019-03-29T07:37:17.644Z,101100.16
2019-03-29T07:39:47.747Z,101091.19
2019-03-29T07:42:17.884Z,101087.86
2019-03-29T07:44:48.002Z,101094.95
2019-03-29T07:47:18.087Z,101098.20
2019-03-29T07:49:48.224Z,101105.89
2019-03-29T07:52:18.308Z,101100.55
2019-03-29T07:54:48.407Z,101105.46
2019-03-29T07:57:18.522Z,101097.84
2019-03-29T07:59:48.621Z,101096.82
2019-03-29T08:02:18.717Z,101094.80
2019-03-29T08:04:48.855Z,101097.52
2019-03-29T08:07:27.187Z,101097.82
2019-03-29T08:09:50.792Z,101087.87
2019-03-29T08:12:22.204Z,101093.12
2019-03-29T08:14:52.589Z,101091.61
2019-03-29T08:17:22.916Z,101085.00
2019-03-29T08:20:19.059Z,101081.45
2019-03-29T08:22:24.827Z,101078.58
2019-03-29T08:24:54.882Z,101075.53
2019-03-29T08:27:24.971Z,101075.88
2019-03-29T08:29:55.149Z,101075.70
2019-03-29T08:32:25.243Z,101072.66
2019-03-29T08:34:55.333Z,101072.81
2019-03-29T08:37:25.455Z,101068.42
2019-03-29T08:39:56.544Z,101066.74
2019-03-29T08:42:26.922Z,101063.38
2019-03-29T08:44:57.009Z,101059.98
2019-03-29T08:47:27.116Z,101051.54
2019-03-29T08:49:57.181Z,101043.45
2019-03-29T08:52:27.250Z,101041.05
2019-03-29T08:54:57.340Z,101031.38
2019-03-29T08:57:27.445Z,101034.11
2019-03-29T08:59:57.508Z,101029.96
2019-03-29T09:02:27.570Z,101029.73
2019-03-29T09:04:57.674Z,101030.34
2019-03-29T09:07:28.170Z,101028.16
2019-03-29T09:09:58.644Z,101029.23
2019-03-29T09:12:28.690Z,101016.52
2019-03-29T09:14:58.809Z,101021.80
2019-03-29T09:17:28.889Z,101021.44
2019-03-29T09:19:58.977Z,101021.48
2019-03-29T09:22:29.080Z,101018.30
2019-03-29T09:24:59.158Z,101010.73
2019-03-29T09:27:31.808Z,101012.55
2019-03-29T09:30:01.046Z,101008.30
2019-03-29T09:32:31.116Z,101003.11
2019-03-29T09:35:01.158Z,101001.68
2019-03-29T09:37:31.225Z,101005.69
2019-03-29T09:40:01.282Z,100998.19
2019-03-29T09:42:31.357Z,100996.95
2019-03-29T09:45:01.429Z,100999.16
2019-03-29T09:47:37.037Z,100989.16
2019-03-29T09:50:03.286Z,100989.91
2019-03-29T09:52:33.339Z,100979.66
2019-03-29T09:55:03.431Z,100987.33
2019-03-29T09:57:37.974Z,100986.80
2019-03-29T10:00:18.101Z,100984.45
2019-03-29T10:02:37.608Z,100980.09
2019-03-29T10:05:07.664Z,100985.06
2019-03-29T10:07:37.743Z,100983.44
2019-03-29T10:10:07.839Z,100983.60
2019-03-29T10:12:43.803Z,100976.84
2019-03-29T10:15:09.778Z,100976.67
2019-03-29T10:17:39.831Z,100978.78
2019-03-29T10:20:09.996Z,100973.98
2019-03-29T10:22:40.061Z,100978.11
2019-03-29T10:25:19.213Z,100972.47
2019-03-29T10:27:42.177Z,100970.82
2019-03-29T10:30:12.285Z,100966.80
2019-03-29T10:32:42.358Z,100962.23
2019-03-29T10:35:12.421Z,100966.14
2019-03-29T10:37:42.483Z,100959.95
2019-03-29T10:40:12.538Z,100962.95
2019-03-29T10:42:56.721Z,100962.95
2019-03-29T10:45:14.420Z,100954.92
2019-03-29T10:47:44.488Z,100954.97
2019-03-29T10:50:14.550Z,100951.66
2019-03-29T10:52:44.629Z,100941.87
2019-03-29T10:55:14.704Z,100944.80
2019-03-29T10:57:44.773Z,100946.41
2019-03-29T11:00:21.465Z,100945.02
2019-03-29T11:02:50.186Z,100943.11
2019-03-29T11:05:20.289Z,100939.72
2019-03-29T11:07:50.348Z,100933.11
2019-03-29T11:10:32.713Z,100936.07
2019-03-29T11:13:12.477Z,100934.23
2019-03-29T11:15:38.344Z,100928.16
2019-03-29T11:18:08.519Z,100929.45
2019-03-29T11:20:38.685Z,100925.02
2019-03-29T11:23:08.782Z,100925.59
2019-03-29T11:25:38.886Z,100927.44
2019-03-29T11:28:08.977Z,100924.38
2019-03-29T11:30:42.482Z,100921.36
2019-03-29T11:33:11.051Z,100921.94
2019-03-29T11:35:41.127Z,100922.64
2019-03-29T11:38:11.186Z,100916.66
2019-03-29T11:40:41.271Z,100905.66
2019-03-29T11:43:25.725Z,100904.77
2019-03-29T11:45:43.249Z,100910.20
2019-03-29T11:48:13.390Z,100909.21
2019-03-29T11:50:43.456Z,100894.72
2019-03-29T11:53:13.520Z,100890.09
2019-03-29T11:55:43.605Z,100888.05
2019-03-29T11:58:13.663Z,100888.97
2019-03-29T12:00:43.737Z,100890.42
2019-03-29T12:03:13.813Z,100891.20
2019-03-29T12:05:43.906Z,100897.85
2019-03-29T12:08:13.959Z,100885.16
2019-03-29T12:10:44.040Z,100873.09
2019-03-29T12:13:14.084Z,100876.27
2019-03-29T12:15:44.333Z,100867.16
2019-03-29T12:18:14.405Z,100873.94
2019-03-29T12:20:44.476Z,100866.47
2019-03-29T12:23:14.529Z,100860.53
2019-03-29T12:25:44.589Z,100874.67
2019-03-29T12:28:14.660Z,100876.31
2019-03-29T12:30:44.783Z,100875.52
2019-03-29T12:33:14.853Z,100874.34
2019-03-29T12:35:44.894Z,100870.84
2019-03-29T12:38:14.969Z,100866.72
2019-03-29T12:40:45.424Z,100868.67
2019-03-29T12:43:15.610Z,100871.11
2019-03-29T12:45:45.675Z,100861.73
2019-03-29T12:48:15.770Z,100860.70
2019-03-29T12:50:45.827Z,100858.73
2019-03-29T12:53:15.908Z,100867.73
2019-03-29T12:55:46.053Z,100869.42
2019-03-29T12:58:16.166Z,100863.02
2019-03-29T13:00:46.223Z,100864.42
2019-03-29T13:03:16.421Z,100860.22
2019-03-29T13:05:46.702Z,100860.53
2019-03-29T13:08:16.766Z,100863.82
2019-03-29T13:10:46.974Z,100856.42
2019-03-29T13:13:17.044Z,100856.85
2019-03-29T13:15:47.111Z,100858.12
2019-03-29T13:18:17.219Z,100859.66
2019-03-29T13:20:47.414Z,100855.23
2019-03-29T13:23:17.481Z,100850.76
2019-03-29T13:25:47.541Z,100848.44
2019-03-29T13:28:17.643Z,100846.38
2019-03-29T13:30:47.707Z,100847.34
2019-03-29T13:33:20.519Z,100847.63
2019-03-29T13:35:49.595Z,100837.80
2019-03-29T13:38:20.716Z,100849.46
2019-03-29T13:40:50.932Z,100844.05
2019-03-29T13:43:21.043Z,100842.46
2019-03-29T13:45:51.100Z,100840.94
2019-03-29T13:48:21.191Z,100828.33
2019-03-29T13:50:51.307Z,100828.02
2019-03-29T13:53:21.402Z,100833.42
2019-03-29T13:55:51.490Z,100831.74
2019-03-29T13:58:21.635Z,100833.73
2019-03-29T14:00:51.733Z,100816.22
2019-03-29T14:03:21.835Z,100821.61
2019-03-29T14:05:51.932Z,100825.30
2019-03-29T14:08:22.007Z,100828.33
2019-03-29T14:10:52.108Z,100829.16
2019-03-29T14:13:22.198Z,100833.70
2019-03-29T14:15:52.343Z,100827.95
2019-03-29T14:18:22.418Z,100826.31
2019-03-29T14:20:52.501Z,100828.34
2019-03-29T14:23:22.591Z,100829.02
2019-03-29T14:25:52.665Z,100823.61
2019-03-29T14:28:22.779Z,100819.91
2019-03-29T14:30:52.861Z,100817.91
2019-03-29T14:33:22.959Z,100816.70
2019-03-29T14:35:53.024Z,100810.14
2019-03-29T14:38:23.226Z,100819.08
2019-03-29T14:40:53.325Z,100812.48
2019-03-29T14:43:23.427Z,100816.52
2019-03-29T14:45:53.511Z,100817.81
2019-03-29T14:48:23.626Z,100821.81
2019-03-29T14:50:53.714Z,100823.39
2019-03-29T14:53:23.824Z,100819.79
2019-03-29T14:55:53.901Z,100820.76
2019-03-29T14:58:24.006Z,100817.91
2019-03-29T15:00:54.054Z,100816.25
2019-03-29T15:03:24.200Z,100816.25
2019-03-29T15:05:54.263Z,100820.32
2019-03-29T15:08:24.389Z,100817.63
2019-03-29T15:10:54.554Z,100786.71
2019-03-29T15:13:24.638Z,100810.14
2019-03-29T15:15:54.749Z,100811.41
2019-03-29T15:18:24.852Z,100812.41
2019-03-29T15:20:54.936Z,100815.06
2019-03-29T15:23:25.032Z,100814.70
2019-03-29T15:25:55.155Z,100815.55
2019-03-29T15:28:25.286Z,100810.92
2019-03-29T15:30:55.426Z,100823.20
2019-03-29T15:33:25.503Z,100817.27
2019-03-29T15:35:55.609Z,100813.68
2019-03-29T15:38:25.753Z,100815.72
2019-03-29T15:40:55.830Z,100816.02
2019-03-29T15:43:26.087Z,100817.16
2019-03-29T15:45:56.183Z,100816.45
2019-03-29T15:48:26.358Z,100810.17
2019-03-29T15:50:56.523Z,100810.27
2019-03-29T15:53:26.623Z,100805.38
2019-03-29T15:55:56.718Z,100802.64
2019-03-29T15:58:26.803Z,100801.44
2019-03-29T16:00:56.868Z,100802.00
2019-03-29T16:03:26.953Z,100804.30
2019-03-29T16:05:57.073Z,100797.05
2019-03-29T16:08:27.149Z,100800.46
2019-03-29T16:10:57.251Z,100803.05
2019-03-29T16:13:27.359Z,100804.16
2019-03-29T16:15:57.498Z,100801.41
2019-03-29T16:18:27.596Z,100807.64
2019-03-29T16:20:57.720Z,100802.17
2019-03-29T16:23:27.814Z,100796.19
2019-03-29T16:25:57.974Z,100793.09
2019-03-29T16:28:28.093Z,100790.95
2019-03-29T16:30:58.211Z,100786.61
2019-03-29T16:33:28.571Z,100790.47
2019-03-29T16:35:58.815Z,100795.77
2019-03-29T16:38:28.919Z,100788.95
2019-03-29T16:40:59.007Z,100792.16
2019-03-29T16:43:29.087Z,100795.45
2019-03-29T16:45:59.181Z,100792.62
2019-03-29T16:48:29.333Z,100789.19
2019-03-29T16:50:59.525Z,100790.80
2019-03-29T16:53:29.629Z,100790.78
2019-03-29T16:55:59.698Z,100793.69
2019-03-29T16:58:29.789Z,100788.75
2019-03-29T17:00:59.960Z,100790.02
2019-03-29T17:03:30.166Z,100786.85
2019-03-29T17:06:00.375Z,100791.18
2019-03-29T17:08:30.542Z,100791.10
2019-03-29T17:11:00.694Z,100790.25
2019-03-29T17:13:30.799Z,100795.34
2019-03-29T17:16:02.220Z,100789.95
2019-03-29T17:18:32.551Z,100797.48
2019-03-29T17:21:02.829Z,100797.62
2019-03-29T17:23:32.950Z,100794.66
2019-03-29T17:26:03.072Z,100796.34
2019-03-29T17:28:33.267Z,100800.41
2019-03-29T17:31:05.210Z,100802.58
2019-03-29T17:33:35.314Z,100798.77
2019-03-29T17:36:05.436Z,100789.50
2019-03-29T17:38:35.502Z,100796.62
2019-03-29T17:41:05.601Z,100801.94
2019-03-29T17:43:35.677Z,100799.42
2019-03-29T17:46:16.080Z,100803.75
2019-03-29T17:48:38.776Z,100804.03
2019-03-29T17:51:11.719Z,100801.17
2019-03-29T17:53:41.962Z,100804.03
2019-03-29T17:56:12.272Z,100799.01
2019-03-29T17:58:42.373Z,100810.59
2019-03-29T18:01:12.537Z,100805.92
2019-03-29T18:03:42.970Z,100808.81
2019-03-29T18:06:13.108Z,100807.16
2019-03-29T18:08:43.250Z,100805.02
2019-03-29T18:11:13.385Z,100817.28
2019-03-29T18:13:43.511Z,100808.18
2019-03-29T18:16:14.941Z,100817.04
2019-03-29T18:18:45.298Z,100821.16
2019-03-29T18:21:15.394Z,100829.75
2019-03-29T18:23:45.597Z,100830.23
2019-03-29T18:26:15.672Z,100829.87
2019-03-29T18:28:45.807Z,100800.44
2019-03-29T18:31:16.111Z,100833.99
2019-03-29T18:33:46.198Z,100832.25
2019-03-29T18:36:16.360Z,100830.19
2019-03-29T18:38:47.160Z,100832.58
2019-03-29T18:41:17.339Z,100829.83
2019-03-29T18:43:47.500Z,100837.00
2019-03-29T18:46:17.666Z,100840.39
2019-03-29T18:48:47.829Z,100839.30
2019-03-29T18:51:17.975Z,100845.08
2019-03-29T18:53:48.049Z,100841.27
2019-03-29T18:56:18.128Z,100841.21
2019-03-29T18:58:48.321Z,100838.38
2019-03-29T19:01:18.419Z,100848.58
2019-03-29T19:03:48.481Z,100844.80
2019-03-29T19:06:18.585Z,100840.51
2019-03-29T19:08:48.682Z,100837.56
2019-03-29T19:11:18.796Z,100839.70
2019-03-29T19:13:48.886Z,100838.31
2019-03-29T19:16:18.959Z,100841.09
2019-03-29T19:18:49.159Z,100849.34
2019-03-29T19:21:19.318Z,100850.27
2019-03-29T19:23:49.430Z,100846.36
2019-03-29T19:26:19.528Z,100856.16
2019-03-29T19:28:49.732Z,100853.84
2019-03-29T19:31:20.443Z,100858.58
2019-03-29T19:33:50.797Z,100861.28
2019-03-29T19:36:22.779Z,100851.91
2019-03-29T19:38:52.997Z,100859.09
2019-03-29T19:41:23.130Z,100862.48
2019-03-29T19:43:53.213Z,100865.16
2019-03-29T19:46:23.417Z,100863.63
2019-03-29T19:48:53.507Z,100857.94
2019-03-29T19:51:23.684Z,100866.86
2019-03-29T19:54:06.706Z,100861.28
2019-03-29T19:56:25.635Z,100864.61
2019-03-29T19:58:55.782Z,100869.97
2019-03-29T20:01:25.944Z,100870.33
2019-03-29T20:03:56.097Z,100866.88
2019-03-29T20:06:26.323Z,100863.84
2019-03-29T20:08:56.522Z,100866.14
2019-03-29T20:11:26.654Z,100871.13
2019-03-29T20:13:56.824Z,100871.13
2019-03-29T20:16:26.953Z,100877.45
2019-03-29T20:18:57.068Z,100880.25
2019-03-29T20:21:27.314Z,100878.72
2019-03-29T20:23:57.530Z,100883.89
2019-03-29T20:26:27.688Z,100884.07
2019-03-29T20:28:57.821Z,100880.49
2019-03-29T20:31:27.984Z,100872.57
2019-03-29T20:33:58.279Z,100867.45
2019-03-29T20:36:28.366Z,100867.33
2019-03-29T20:38:58.435Z,100874.50
2019-03-29T20:41:28.579Z,100867.94
2019-03-29T20:43:58.696Z,100871.67
2019-03-29T20:46:28.940Z,100872.26
2019-03-29T20:48:59.261Z,100874.81
2019-03-29T20:51:29.435Z,100874.45
2019-03-29T20:53:59.553Z,100872.03
2019-03-29T20:56:29.676Z,100874.81
2019-03-29T20:58:59.781Z,100878.08
2019-03-29T21:01:29.909Z,100878.64
2019-03-29T21:04:00.090Z,100889.08
2019-03-29T21:06:30.175Z,100887.81
2019-03-29T21:09:00.307Z,100888.89
2019-03-29T21:11:30.437Z,100886.94
2019-03-29T21:14:00.612Z,100889.98
2019-03-29T21:16:30.679Z,100887.30
2019-03-29T21:19:00.813Z,100877.11
2019-03-29T21:21:30.951Z,100883.73
2019-03-29T21:24:01.070Z,100887.74
2019-03-29T21:26:31.134Z,100890.42
2019-03-29T21:29:02.225Z,100890.78
2019-03-29T21:31:32.356Z,100887.13
2019-03-29T21:34:02.460Z,100884.16
2019-03-29T21:36:32.571Z,100889.88
2019-03-29T21:39:02.746Z,100880.14
2019-03-29T21:41:32.879Z,100881.48
2019-03-29T21:44:03.937Z,100882.98
2019-03-29T21:46:34.008Z,100882.46
2019-03-29T21:49:04.101Z,100880.80
2019-03-29T21:51:34.247Z,100879.53
2019-03-29T21:54:04.393Z,100889.52
2019-03-29T21:56:34.586Z,100881.23
2019-03-29T21:59:05.267Z,100889.98
2019-03-29T22:01:35.646Z,100880.31
2019-03-29T22:04:06.079Z,100878.00
2019-03-29T22:06:36.209Z,100874.70
2019-03-29T22:09:08.443Z,100868.63
2019-03-29T22:11:38.511Z,100869.34
2019-03-29T22:14:08.641Z,100865.69
2019-03-29T22:16:38.733Z,100872.02
2019-03-29T22:19:08.845Z,100863.14
2019-03-29T22:21:38.930Z,100861.09
2019-03-29T22:24:09.061Z,100863.50
2019-03-29T22:26:39.148Z,100860.95
2019-03-29T22:29:09.232Z,100861.67
2019-03-29T22:32:17.838Z,100862.03
2019-03-29T22:34:56.883Z,100854.36
2019-03-29T22:37:26.975Z,100864.28
2019-03-29T22:39:57.053Z,100864.81
2019-03-29T22:42:27.148Z,100863.47
2019-03-29T22:44:57.295Z,100855.63
2019-03-29T22:47:27.380Z,100855.38
2019-03-29T22:49:57.470Z,100845.51
2019-03-29T22:52:27.568Z,100844.17
2019-03-29T22:54:57.642Z,100845.51
2019-03-29T22:57:32.481Z,100835.06
2019-03-29T23:00:05.900Z,100836.77
2019-03-29T23:02:36.075Z,100837.25
2019-03-29T23:05:06.683Z,100828.98
2019-03-29T23:07:36.842Z,100836.95
2019-03-29T23:10:07.246Z,100834.19
2019-03-29T23:12:37.425Z,100835.52
2019-03-29T23:15:07.576Z,100837.28
2019-03-29T23:17:37.674Z,100825.11
2019-03-29T23:20:07.776Z,100825.86
2019-03-29T23:22:37.853Z,100831.05
2019-03-29T23:25:07.928Z,100835.20
2019-03-29T23:27:38.011Z,100834.30
2019-03-29T23:30:08.164Z,100821.65
2019-03-29T23:32:38.249Z,100829.41
2019-03-29T23:35:08.824Z,100822.50
2019-03-29T23:37:38.951Z,100828.56
2019-03-29T23:40:09.042Z,100829.94
2019-03-29T23:42:39.169Z,100826.77
2019-03-29T23:45:09.259Z,100828.23
2019-03-29T23:47:39.333Z,100821.48
2019-03-29T23:50:09.456Z,100820.14
2019-03-29T23:52:39.547Z,100820.89
2019-03-29T23:55:09.626Z,100825.03
2019-03-29T23:57:39.725Z,100820.66
